Time;durP1;ratioP1;P1;durP2;ratioP2;P2;SDS_P1;SDS_P2;PMS_P1;PMS_P2;Temp;Humidity;BMP_temperature;BMP_pressure;BME280_temperature;BME280_humidity;BME280_pressure;Samples;Min_cycle;Max_cycle;Signal;HPM_P1;HPM_P2
2023/01/15 00:02:08;;;;;;;35.80;16.40;;;;;;;3.23;67.03;101225.59;107909;1256;72479;-69
2023/01/15 00:04:35;;;;;;;33.90;16.60;;;;;;;3.27;66.98;101220.45;108088;1254;72036;-69
2023/01/15 00:07:03;;;;;;;37.60;18.50;;;;;;;3.28;67.05;101213.80;107904;1254;60725;-69
2023/01/15 00:09:30;;;;;;;45.60;20.40;;;;;;;3.29;66.95;101211.89;108083;1254;59494;-69
2023/01/15 00:11:56;;;;;;;43.00;21.40;;;;;;;3.30;66.98;101211.25;108159;1254;72464;-69
2023/01/15 00:14:23;;;;;;;42.70;20.00;;;;;;;3.27;66.80;101207.38;108157;1254;71687;-69
2023/01/15 00:16:51;;;;;;;49.60;20.30;;;;;;;3.24;66.73;101205.69;108172;1254;71496;-69
2023/01/15 00:19:18;;;;;;;43.00;19.60;;;;;;;3.17;66.67;101202.52;108149;1256;62187;-70
2023/01/15 00:21:45;;;;;;;42.60;18.50;;;;;;;3.07;66.75;101197.09;108134;1254;60306;-69
2023/01/15 00:29:46;;;;;;;45.60;20.20;;;;;;;2.89;66.81;101197.51;108112;1254;74004;-69
2023/01/15 00:32:13;;;;;;;43.00;19.30;;;;;;;2.84;67.07;101203.55;108158;1254;60460;-69
2023/01/15 00:34:41;;;;;;;45.90;20.80;;;;;;;2.82;67.09;101201.42;108124;1254;60773;-70
2023/01/15 00:37:08;;;;;;;44.60;20.80;;;;;;;2.82;67.30;101202.93;108122;1258;73993;-69
2023/01/15 00:39:36;;;;;;;47.10;20.60;;;;;;;2.83;67.45;101202.00;108147;1254;72790;-69
2023/01/15 00:42:03;;;;;;;47.40;21.70;;;;;;;2.87;67.43;101200.61;107982;1254;71983;-69
2023/01/15 00:44:32;;;;;;;44.90;20.40;;;;;;;2.92;67.44;101198.52;108159;1254;61341;-69
2023/01/15 00:46:59;;;;;;;45.10;22.30;;;;;;;2.97;67.63;101196.48;108151;1254;60358;-70
2023/01/15 00:49:26;;;;;;;45.80;20.50;;;;;;;3.00;67.59;101194.50;108166;1254;74148;-69
2023/01/15 00:51:54;;;;;;;47.60;19.80;;;;;;;3.03;67.50;101191.40;108145;1254;73136;-69
2023/01/15 00:54:21;;;;;;;48.50;21.90;;;;;;;3.05;67.63;101188.34;108102;1254;72066;-69
2023/01/15 00:56:48;;;;;;;44.90;21.10;;;;;;;3.08;67.70;101183.53;108122;1254;60488;-69
2023/01/15 00:59:14;;;;;;;46.00;21.30;;;;;;;3.08;67.60;101186.45;108103;1254;60920;-69
2023/01/15 01:01:42;;;;;;;47.80;20.60;;;;;;;3.06;67.50;101184.16;107868;1256;73121;-69
2023/01/15 01:04:09;;;;;;;46.80;20.40;;;;;;;3.05;67.43;101184.10;107866;1256;72813;-69
2023/01/15 01:06:36;;;;;;;49.80;21.80;;;;;;;3.06;67.66;101179.38;107901;1258;72886;-69
2023/01/15 01:09:03;;;;;;;40.80;19.20;;;;;;;3.06;67.68;101174.98;108157;1255;62144;-68
2023/01/15 01:11:33;;;;;;;38.20;19.30;;;;;;;3.04;67.43;101173.30;107894;1255;60450;-68
2023/01/15 01:14:00;;;;;;;45.40;20.60;;;;;;;3.07;67.47;101173.48;108143;1256;73618;-69
2023/01/15 01:16:36;;;;;;;44.80;20.60;;;;;;;3.09;67.62;101166.95;108153;1256;72552;-68
2023/01/15 01:19:08;;;;;;;44.80;20.50;;;;;;;3.07;67.51;101165.00;108146;1256;71699;-68
2023/01/15 01:21:36;;;;;;;42.90;20.30;;;;;;;3.03;67.54;101165.84;108147;1255;60769;-69
2023/01/15 01:24:04;;;;;;;39.30;18.20;;;;;;;3.03;67.52;101172.38;108163;1256;60343;-68
2023/01/15 01:26:33;;;;;;;36.50;18.10;;;;;;;3.02;67.54;101170.73;108173;1256;74916;-69
2023/01/15 01:29:00;;;;;;;35.10;17.00;;;;;;;3.01;67.45;101167.67;108114;1256;73222;-69
2023/01/15 01:31:26;;;;;;;37.60;17.00;;;;;;;3.00;67.47;101165.11;108115;1255;73358;-70
2023/01/15 01:33:55;;;;;;;33.20;17.20;;;;;;;2.99;67.54;101164.25;108089;1255;60834;-68
2023/01/15 01:36:29;;;;;;;31.60;17.10;;;;;;;3.02;67.38;101162.52;108175;1256;61190;-70
2023/01/15 01:38:58;;;;;;;33.80;16.90;;;;;;;3.02;67.60;101161.39;108066;1255;73430;-70
2023/01/15 01:41:24;;;;;;;31.90;15.90;;;;;;;3.03;67.52;101163.89;107975;1254;73203;-70
2023/01/15 01:44:01;;;;;;;33.50;17.00;;;;;;;3.03;67.49;101160.96;108124;1254;71896;-69
2023/01/15 01:46:30;;;;;;;32.30;16.00;;;;;;;3.01;67.60;101161.52;108087;1254;60454;-69
2023/01/15 01:49:08;;;;;;;30.70;15.10;;;;;;;2.99;67.52;101165.07;108102;1254;60263;-69
2023/01/15 01:51:42;;;;;;;29.60;16.00;;;;;;;2.98;67.34;101168.47;108086;1255;74945;-69
2023/01/15 01:54:09;;;;;;;31.40;16.40;;;;;;;2.99;67.36;101169.45;107859;1255;73974;-70
2023/01/15 01:56:36;;;;;;;26.70;14.40;;;;;;;3.03;67.49;101166.92;107975;1260;73561;-69
2023/01/15 01:59:03;;;;;;;28.20;14.90;;;;;;;3.04;67.31;101165.27;107833;1255;60436;-69
2023/01/15 02:01:30;;;;;;;29.00;14.70;;;;;;;3.02;67.29;101162.57;107881;1255;61055;-70
2023/01/15 02:03:57;;;;;;;27.70;15.10;;;;;;;3.02;67.15;101164.20;108112;1256;75447;-70
2023/01/15 02:06:24;;;;;;;33.40;17.00;;;;;;;3.05;67.23;101167.02;108143;1255;73530;-70
2023/01/15 02:08:51;;;;;;;30.50;15.90;;;;;;;3.06;67.22;101169.42;107904;1254;71647;-68
2023/01/15 02:11:21;;;;;;;32.70;16.10;;;;;;;3.04;67.07;101170.46;107925;1254;60476;-68
2023/01/15 02:13:51;;;;;;;30.00;16.20;;;;;;;3.03;66.94;101175.86;108114;1254;59579;-69
2023/01/15 02:16:24;;;;;;;28.50;14.50;;;;;;;3.04;67.01;101176.80;107983;1254;73193;-68
2023/01/15 02:19:45;;;;;;;31.50;15.70;;;;;;;3.05;67.11;101171.73;108146;1254;71883;-68
2023/01/15 02:22:20;;;;;;;30.70;15.40;;;;;;;3.03;66.95;101168.42;107449;1265;73646;-68
2023/01/15 02:25:07;;;;;;;30.50;15.50;;;;;;;3.03;66.99;101170.39;107485;1261;60471;-69
2023/01/15 02:39:16;;;;;;;29.50;16.70;;;;;;;3.07;67.05;101166.10;105608;1283;615276;-78
2023/01/15 02:41:46;;;;;;;26.70;15.20;;;;;;;3.50;66.14;101166.62;107314;1266;108259;-76
2023/01/15 02:44:15;;;;;;;30.80;16.20;;;;;;;3.50;66.12;101160.91;107379;1267;59577;-76
2023/01/15 02:46:42;;;;;;;32.10;16.40;;;;;;;3.48;66.13;101160.10;107403;1269;70960;-75
2023/01/15 02:49:12;;;;;;;32.50;17.40;;;;;;;3.44;66.11;101157.52;107416;1266;72234;-75
2023/01/15 02:51:44;;;;;;;29.30;16.00;;;;;;;3.40;66.03;101155.02;107314;1267;72706;-75
2023/01/15 02:54:13;;;;;;;33.00;16.80;;;;;;;3.35;66.03;101163.19;107365;1266;61594;-76
2023/01/15 02:56:41;;;;;;;33.30;16.30;;;;;;;3.29;66.05;101164.73;107420;1267;61164;-75
2023/01/15 02:59:11;;;;;;;31.00;16.30;;;;;;;3.26;66.03;101164.61;107533;1263;72514;-75
2023/01/15 03:01:51;;;;;;;31.90;16.40;;;;;;;3.24;65.95;101158.55;107472;1263;72360;-75
2023/01/15 03:04:26;;;;;;;32.60;16.60;;;;;;;3.24;66.05;101157.04;107444;1268;72659;-76
2023/01/15 03:07:07;;;;;;;29.80;15.50;;;;;;;3.32;65.82;101154.35;107479;1263;59406;-75
2023/01/15 03:09:36;;;;;;;31.20;15.60;;;;;;;3.24;65.83;101158.27;107520;1263;59602;-75
2023/01/15 03:12:08;;;;;;;31.00;16.30;;;;;;;3.13;65.93;101154.20;107445;1264;72379;-75
2023/01/15 03:14:51;;;;;;;33.90;17.20;;;;;;;3.09;65.99;101152.23;107787;1263;72200;-75
2023/01/15 03:17:47;;;;;;;32.00;16.20;;;;;;;3.09;66.10;101151.21;107733;1260;71756;-76
2023/01/15 03:20:23;;;;;;;39.90;17.90;;;;;;;3.09;66.02;101152.14;107588;1261;62477;-75
2023/01/15 03:22:52;;;;;;;37.00;17.90;;;;;;;3.10;65.97;101146.55;107751;1261;59417;-75
2023/01/15 03:25:28;;;;;;;34.50;17.30;;;;;;;3.11;66.12;101141.85;107712;1260;72464;-75
2023/01/15 03:27:58;;;;;;;34.50;17.80;;;;;;;3.08;65.89;101138.00;107597;1260;71618;-75
2023/01/15 03:30:26;;;;;;;36.00;18.80;;;;;;;3.04;66.02;101142.98;107596;1260;72861;-75
2023/01/15 03:32:54;;;;;;;29.20;15.00;;;;;;;2.99;65.94;101148.02;107560;1260;60062;-75
2023/01/15 03:35:56;;;;;;;36.90;17.80;;;;;;;2.93;66.02;101154.77;107850;1257;59099;-76
2023/01/15 03:38:29;;;;;;;36.00;18.00;;;;;;;2.86;66.06;101156.20;107896;1257;72051;-75
2023/01/15 03:41:17;;;;;;;38.30;18.70;;;;;;;2.84;66.17;101158.55;107686;1258;71708;-76
2023/01/15 03:44:22;;;;;;;39.00;18.80;;;;;;;2.83;66.26;101155.05;107651;1257;71903;-75
2023/01/15 03:47:01;;;;;;;36.80;17.50;;;;;;;2.78;66.27;101149.64;107652;1258;61446;-75
2023/01/15 03:50:00;;;;;;;38.10;17.60;;;;;;;2.72;66.24;101149.22;107695;1258;60097;-76
2023/01/15 03:52:49;;;;;;;40.00;18.90;;;;;;;2.59;66.51;101145.84;107717;1261;72212;-74
2023/01/15 03:55:29;;;;;;;44.00;20.40;;;;;;;2.59;66.73;101146.84;107830;1257;71162;-75
2023/01/15 03:58:14;;;;;;;38.70;19.40;;;;;;;2.56;66.72;101143.00;107816;1262;73642;-74
2023/01/15 04:11:59;;;;;;;39.90;21.70;;;;;;;2.67;67.13;101144.84;105788;1283;612553;-73
2023/01/15 04:14:30;;;;;;;43.60;20.50;;;;;;;2.92;66.75;101139.84;107388;1267;153741;-75
2023/01/15 04:16:57;;;;;;;43.90;22.20;;;;;;;2.88;66.85;101139.09;107452;1263;60441;-75
2023/01/15 04:19:25;;;;;;;47.90;22.10;;;;;;;2.80;66.78;101138.70;107504;1263;70129;-73
2023/01/15 04:21:58;;;;;;;38.30;19.40;;;;;;;2.79;66.90;101139.67;107515;1263;74333;-74
2023/01/15 04:24:25;;;;;;;39.80;20.30;;;;;;;2.82;66.96;101132.80;107433;1263;72970;-74
2023/01/15 04:26:52;;;;;;;45.20;20.90;;;;;;;2.79;67.02;101128.02;107425;1267;61414;-75
2023/01/15 04:29:20;;;;;;;43.00;20.50;;;;;;;2.74;67.07;101131.18;107615;1260;59506;-76
2023/01/15 04:31:47;;;;;;;42.80;19.60;;;;;;;2.70;67.12;101132.50;107606;1260;73599;-76
2023/01/15 04:34:14;;;;;;;40.10;19.40;;;;;;;2.75;67.18;101137.23;107615;1260;73406;-75
2023/01/15 04:36:45;;;;;;;39.90;19.70;;;;;;;2.76;67.26;101137.63;107615;1260;70865;-76
2023/01/15 04:39:12;;;;;;;42.50;20.10;;;;;;;2.73;67.10;101141.52;107607;1262;60934;-75
2023/01/15 04:44:27;;;;;;;38.10;18.00;;;;;;;2.74;67.11;101142.11;107637;1260;74075;-74
2023/01/15 04:46:56;;;;;;;38.30;19.00;;;;;;;2.70;67.06;101137.61;107607;1260;74589;-75
2023/01/15 04:49:23;;;;;;;37.80;19.20;;;;;;;2.70;66.90;101135.81;107567;1260;71054;-77
2023/01/15 04:51:50;;;;;;;37.20;19.00;;;;;;;2.69;67.07;101132.09;107571;1262;61409;-75
2023/01/15 04:54:17;;;;;;;38.80;19.60;;;;;;;2.68;67.07;101127.16;107636;1260;60666;-74
2023/01/15 04:56:46;;;;;;;39.20;20.20;;;;;;;2.68;67.10;101126.77;107598;1260;75339;-75
2023/01/15 04:59:14;;;;;;;38.80;19.40;;;;;;;2.71;67.05;101123.22;107621;1260;73726;-74
2023/01/15 05:01:41;;;;;;;38.30;19.30;;;;;;;2.72;67.14;101122.98;107506;1262;71876;-73
2023/01/15 05:04:20;;;;;;;38.00;19.20;;;;;;;2.71;66.96;101122.80;107523;1263;61856;-76
2023/01/15 05:06:48;;;;;;;38.20;19.10;;;;;;;2.71;66.99;101128.94;107535;1264;60600;-74
2023/01/15 05:09:15;;;;;;;35.80;18.70;;;;;;;2.71;66.91;101128.92;107571;1260;73934;-75
2023/01/15 05:11:42;;;;;;;36.70;18.80;;;;;;;2.73;67.05;101127.93;107637;1260;73569;-75
2023/01/15 05:14:09;;;;;;;35.20;18.00;;;;;;;2.75;66.97;101125.06;107865;1259;71377;-75
2023/01/15 05:16:37;;;;;;;37.70;19.80;;;;;;;2.75;66.79;101122.99;107857;1259;60012;-75
2023/01/15 05:19:06;;;;;;;36.00;18.40;;;;;;;2.73;66.80;101126.19;107925;1257;62415;-75
2023/01/15 05:21:35;;;;;;;37.10;18.80;;;;;;;2.71;66.85;101126.17;107880;1257;75068;-75
2023/01/15 05:24:03;;;;;;;40.10;19.10;;;;;;;2.69;66.65;101127.38;107895;1257;74810;-75
2023/01/15 05:26:32;;;;;;;34.70;18.10;;;;;;;2.67;66.74;101130.08;107861;1256;74825;-75
2023/01/15 05:28:59;;;;;;;38.30;19.60;;;;;;;2.68;66.70;101132.23;107848;1257;60969;-75
2023/01/15 05:31:26;;;;;;;39.20;20.00;;;;;;;2.68;66.69;101130.13;107771;1256;60369;-74
2023/01/15 05:33:54;;;;;;;37.30;18.80;;;;;;;2.71;66.73;101130.71;107869;1257;73623;-75
2023/01/15 05:36:23;;;;;;;35.70;19.30;;;;;;;2.73;66.76;101133.25;107894;1256;74608;-74
2023/01/15 05:38:51;;;;;;;38.60;19.70;;;;;;;2.75;66.76;101132.58;107894;1259;74003;-74
2023/01/15 05:44:06;;;;;;;35.80;18.30;;;;;;;2.76;66.76;101125.38;107715;1263;61038;-75
2023/01/15 05:46:34;;;;;;;35.90;18.70;;;;;;;2.78;66.61;101128.58;107703;1257;74989;-76
2023/01/15 05:49:03;;;;;;;34.90;18.30;;;;;;;2.77;66.57;101126.56;107754;1257;74883;-75
2023/01/15 05:51:30;;;;;;;35.60;18.10;;;;;;;2.78;66.53;101127.14;107766;1257;75075;-74
2023/01/15 05:53:57;;;;;;;36.40;18.50;;;;;;;2.80;66.56;101131.09;107791;1257;61447;-75
2023/01/15 05:56:24;;;;;;;32.10;17.10;;;;;;;2.80;66.41;101130.79;107888;1256;62640;-76
2023/01/15 05:58:52;;;;;;;35.70;18.50;;;;;;;2.78;66.42;101129.84;107944;1257;74037;-75
2023/01/15 06:01:19;;;;;;;35.50;18.10;;;;;;;2.75;66.56;101126.61;107744;1257;73443;-75
2023/01/15 06:03:47;;;;;;;34.10;18.10;;;;;;;2.74;66.43;101124.58;107723;1257;71075;-76
2023/01/15 06:06:16;;;;;;;36.50;18.60;;;;;;;2.74;66.43;101123.29;107704;1260;59897;-76
2023/01/15 06:08:44;;;;;;;33.40;16.90;;;;;;;2.74;66.37;101126.20;107759;1257;60432;-75
2023/01/15 06:11:11;;;;;;;32.90;17.40;;;;;;;2.74;66.39;101124.69;107773;1257;74443;-75
2023/01/15 06:13:38;;;;;;;32.20;17.10;;;;;;;2.71;66.37;101128.65;107744;1257;72884;-75
2023/01/15 06:16:06;;;;;;;33.40;16.60;;;;;;;2.72;66.43;101128.94;107729;1258;74134;-75
2023/01/15 06:18:34;;;;;;;34.10;18.60;;;;;;;2.75;66.54;101126.98;107871;1257;59733;-76
2023/01/15 06:21:02;;;;;;;33.80;17.70;;;;;;;2.77;66.48;101127.13;107974;1256;59562;-75
2023/01/15 06:23:30;;;;;;;34.00;17.70;;;;;;;2.78;66.45;101126.63;107856;1256;73768;-75
2023/01/15 06:26:01;;;;;;;34.60;18.00;;;;;;;2.78;66.50;101129.80;107871;1263;72130;-76
2023/01/15 06:28:28;;;;;;;37.90;19.20;;;;;;;2.78;66.33;101127.32;107851;1257;73740;-75
2023/01/15 06:30:55;;;;;;;32.40;17.40;;;;;;;2.78;66.33;101129.11;107825;1260;60016;-75
2023/01/15 06:33:22;;;;;;;32.40;17.30;;;;;;;2.78;66.39;101128.91;107935;1257;62270;-76
2023/01/15 06:35:49;;;;;;;31.80;16.80;;;;;;;2.81;66.45;101131.45;107952;1257;73413;-75
2023/01/15 06:38:16;;;;;;;32.40;16.60;;;;;;;2.87;66.47;101128.52;107839;1257;71974;-75
2023/01/15 06:40:43;;;;;;;34.80;16.70;;;;;;;2.88;66.31;101124.27;107846;1256;74643;-75
2023/01/15 06:47:19;;;;;;;34.90;16.10;;;;;;;2.90;66.31;101125.87;107871;1257;59633;-75
2023/01/15 06:48:52;;;;;;;29.90;16.20;;;;;;;2.89;66.17;101122.41;107852;1257;72503;-76
2023/01/15 06:51:20;;;;;;;31.20;15.90;;;;;;;2.89;66.10;101118.80;107786;1257;72133;-75
2023/01/15 06:53:47;;;;;;;30.80;16.20;;;;;;;2.89;66.09;101115.71;107845;1256;74803;-75
2023/01/15 06:56:14;;;;;;;29.50;15.80;;;;;;;2.88;66.04;101113.88;107813;1258;60922;-75
2023/01/15 06:58:42;;;;;;;30.10;16.40;;;;;;;2.88;66.03;101114.09;107715;1257;60499;-75
2023/01/15 07:01:13;;;;;;;32.20;16.00;;;;;;;2.90;66.17;101117.50;107952;1257;72419;-75
2023/01/15 07:03:41;;;;;;;29.90;16.20;;;;;;;2.94;66.18;101116.14;107968;1257;72961;-75
2023/01/15 07:06:09;;;;;;;29.20;15.60;;;;;;;2.94;66.23;101108.24;107887;1257;72925;-75
2023/01/15 07:08:36;;;;;;;31.20;16.10;;;;;;;2.95;66.05;101110.10;107831;1257;59653;-75
2023/01/15 07:11:08;;;;;;;28.30;15.20;;;;;;;2.95;66.00;101111.91;107862;1257;59644;-74
2023/01/15 07:13:34;;;;;;;29.30;14.40;;;;;;;2.98;66.05;101117.56;107882;1257;71843;-74
2023/01/15 07:16:02;;;;;;;27.10;14.40;;;;;;;3.01;65.98;101115.47;107866;1257;74127;-75
2023/01/15 07:18:30;;;;;;;28.70;14.70;;;;;;;3.05;66.02;101114.36;107874;1257;74174;-75
2023/01/15 07:20:57;;;;;;;29.80;14.40;;;;;;;3.09;65.89;101110.56;107819;1257;60376;-75
2023/01/15 07:23:24;;;;;;;25.40;14.20;;;;;;;3.11;65.98;101112.45;107878;1256;59679;-75
2023/01/15 07:25:52;;;;;;;25.60;13.70;;;;;;;3.14;65.91;101111.86;107713;1257;74875;-75
2023/01/15 07:28:20;;;;;;;23.20;12.80;;;;;;;3.14;65.75;101115.39;107781;1257;73261;-75
2023/01/15 07:30:47;;;;;;;24.10;13.10;;;;;;;3.14;65.67;101111.86;107786;1259;74032;-75
2023/01/15 07:33:14;;;;;;;21.60;12.00;;;;;;;3.15;65.70;101121.04;107759;1260;60323;-75
2023/01/15 07:35:41;;;;;;;22.20;12.00;;;;;;;3.17;65.61;101120.19;107818;1257;60430;-74
2023/01/15 07:38:08;;;;;;;22.20;11.40;;;;;;;3.17;65.58;101117.02;107737;1257;73314;-74
2023/01/15 07:40:35;;;;;;;18.90;11.10;;;;;;;3.19;65.56;101117.00;107781;1257;74884;-74
2023/01/15 07:51:20;;;;;;;20.90;12.10;;;;;;;3.32;65.28;101117.68;107852;1257;75149;-75
2023/01/15 07:53:47;;;;;;;20.00;10.60;;;;;;;3.35;65.40;101115.38;107765;1257;72040;-75
2023/01/15 07:56:14;;;;;;;20.20;11.20;;;;;;;3.39;65.15;101117.39;107765;1257;74642;-75
2023/01/15 07:58:41;;;;;;;19.00;11.10;;;;;;;3.42;65.07;101123.29;107684;1260;60303;-75
2023/01/15 08:01:08;;;;;;;18.10;10.60;;;;;;;3.46;65.00;101120.64;107962;1257;60560;-75
2023/01/15 08:03:35;;;;;;;18.40;11.20;;;;;;;3.48;64.90;101117.59;107940;1257;72227;-75
2023/01/15 08:06:02;;;;;;;18.80;10.80;;;;;;;3.50;64.82;101118.42;107827;1257;71278;-75
2023/01/15 08:08:29;;;;;;;15.80;9.50;;;;;;;3.52;64.81;101120.86;107892;1257;72717;-75
2023/01/15 08:16:34;;;;;;;17.90;10.40;;;;;;;3.61;64.39;101110.34;107830;1260;71739;-75
2023/01/15 08:19:02;;;;;;;17.90;10.60;;;;;;;3.63;64.50;101106.73;107852;1257;74657;-74
2023/01/15 08:21:29;;;;;;;17.70;10.70;;;;;;;3.65;64.47;101107.35;107918;1257;73585;-74
2023/01/15 08:23:56;;;;;;;17.10;9.70;;;;;;;3.69;64.31;101109.11;107940;1256;60456;-75
2023/01/15 08:26:23;;;;;;;15.70;9.60;;;;;;;3.74;64.28;101111.77;107909;1257;62418;-74
2023/01/15 08:28:50;;;;;;;16.60;10.70;;;;;;;3.78;64.19;101115.11;107846;1257;74391;-75
2023/01/15 08:31:17;;;;;;;18.90;11.00;;;;;;;3.80;64.09;101114.40;107958;1257;71332;-76
2023/01/15 08:33:44;;;;;;;18.80;10.70;;;;;;;3.83;64.14;101114.00;107835;1257;72514;-75
2023/01/15 08:36:11;;;;;;;18.50;11.30;;;;;;;3.86;64.00;101113.40;107876;1257;61530;-75
2023/01/15 08:38:38;;;;;;;17.60;10.10;;;;;;;3.88;63.91;101108.90;107906;1256;61546;-75
2023/01/15 08:41:05;;;;;;;17.00;9.80;;;;;;;3.89;63.66;101111.73;107929;1257;74710;-75
2023/01/15 08:43:32;;;;;;;15.80;10.50;;;;;;;3.88;63.56;101111.34;107822;1257;74413;-75
2023/01/15 08:46:00;;;;;;;15.70;9.90;;;;;;;3.89;63.42;101111.21;107789;1257;71240;-75
2023/01/15 08:48:28;;;;;;;16.70;10.30;;;;;;;3.88;63.26;101107.80;107906;1258;61075;-75
2023/01/15 08:50:55;;;;;;;16.30;9.30;;;;;;;3.89;63.25;101107.92;107887;1256;60316;-75
2023/01/15 08:53:23;;;;;;;17.20;11.00;;;;;;;3.90;63.25;101103.85;107871;1257;74010;-75
2023/01/15 08:55:50;;;;;;;16.50;10.00;;;;;;;3.88;63.12;101096.02;107873;1256;73207;-74
2023/01/15 08:58:17;;;;;;;15.60;10.10;;;;;;;3.90;63.08;101095.15;107921;1257;71893;-74
2023/01/15 09:00:44;;;;;;;15.70;10.30;;;;;;;3.90;63.07;101094.66;107832;1256;61314;-74
2023/01/15 09:03:11;;;;;;;18.70;11.50;;;;;;;3.91;62.95;101093.56;107921;1256;60908;-74
2023/01/15 09:05:38;;;;;;;16.30;10.20;;;;;;;3.93;63.05;101089.84;107907;1256;75386;-74
2023/01/15 09:08:05;;;;;;;15.30;10.00;;;;;;;3.97;63.10;101087.36;107907;1257;73579;-76
2023/01/15 09:10:33;;;;;;;16.60;10.30;;;;;;;4.03;62.99;101079.89;107634;1257;72459;-75
2023/01/15 09:13:02;;;;;;;17.30;10.80;;;;;;;4.06;63.02;101071.92;107866;1260;60433;-75
2023/01/15 09:15:30;;;;;;;16.30;9.80;;;;;;;4.07;62.88;101063.15;107855;1257;61348;-75
2023/01/15 09:17:57;;;;;;;19.70;11.00;;;;;;;4.10;62.78;101061.77;107836;1257;74066;-75
2023/01/15 09:20:24;;;;;;;16.80;10.30;;;;;;;4.14;62.73;101059.53;107905;1256;70576;-75
2023/01/15 09:22:51;;;;;;;17.20;10.00;;;;;;;4.13;62.63;101058.27;107832;1257;74762;-75
2023/01/15 09:25:18;;;;;;;19.60;11.80;;;;;;;4.15;62.51;101055.83;107909;1257;61164;-75
2023/01/15 09:27:47;;;;;;;19.80;11.90;;;;;;;4.19;62.63;101048.15;107873;1257;60429;-75
2023/01/15 09:30:19;;;;;;;19.70;12.50;;;;;;;4.24;62.52;101045.27;107861;1256;75813;-75
2023/01/15 09:32:46;;;;;;;19.50;11.50;;;;;;;4.27;62.42;101044.45;107896;1257;72171;-75
2023/01/15 09:35:14;;;;;;;18.80;11.40;;;;;;;4.28;62.31;101037.45;107835;1257;73871;-74
2023/01/15 09:37:41;;;;;;;20.30;12.20;;;;;;;4.27;62.30;101037.86;107812;1260;59422;-75
2023/01/15 09:40:23;;;;;;;19.40;12.40;;;;;;;4.31;62.28;101037.57;107838;1256;60472;-75
2023/01/15 09:42:59;;;;;;;20.70;12.70;;;;;;;4.37;62.41;101039.41;107852;1257;74353;-74
2023/01/15 09:45:46;;;;;;;19.40;11.80;;;;;;;4.41;62.12;101033.06;108129;1254;72117;-75
2023/01/15 09:48:28;;;;;;;19.90;11.00;;;;;;;4.43;62.08;101023.58;108159;1254;74434;-75
2023/01/15 09:51:01;;;;;;;18.70;11.80;;;;;;;4.43;61.95;101022.64;108162;1256;60388;-75
2023/01/15 09:53:41;;;;;;;19.60;11.50;;;;;;;4.47;62.05;101023.77;108213;1254;62021;-75
2023/01/15 09:56:24;;;;;;;20.40;11.70;;;;;;;4.47;61.77;101026.30;108187;1258;73463;-74
2023/01/15 09:58:51;;;;;;;21.50;12.20;;;;;;;4.44;61.73;101025.37;108159;1254;71963;-74
2023/01/15 10:01:28;;;;;;;20.20;12.20;;;;;;;4.42;61.55;101017.68;108167;1254;73856;-74
2023/01/15 10:04:11;;;;;;;20.90;11.90;;;;;;;4.43;61.64;101012.06;108208;1253;61814;-74
2023/01/15 10:06:42;;;;;;;20.80;12.10;;;;;;;4.47;61.53;101011.41;108214;1253;58997;-74
2023/01/15 10:09:11;;;;;;;19.00;11.70;;;;;;;4.49;61.55;101004.36;108241;1253;74521;-74
2023/01/15 10:14:38;;;;;;;20.40;13.20;;;;;;;4.48;61.56;100980.11;108234;1254;72275;-73
2023/01/15 10:17:17;;;;;;;20.40;12.20;;;;;;;4.48;61.45;100977.59;108223;1253;60358;-74
2023/01/15 10:19:44;;;;;;;23.60;12.50;;;;;;;4.52;61.41;100972.20;108186;1254;61917;-74
2023/01/15 10:22:18;;;;;;;19.90;12.50;;;;;;;4.55;61.35;100966.66;108140;1253;72602;-74
2023/01/15 10:24:51;;;;;;;22.10;12.40;;;;;;;4.56;61.27;100957.27;108164;1254;75033;-73
2023/01/15 10:27:21;;;;;;;20.20;12.20;;;;;;;4.58;61.22;100950.34;108201;1254;73732;-73
2023/01/15 10:29:57;;;;;;;19.80;13.00;;;;;;;4.60;61.13;100947.37;108189;1256;61302;-73
2023/01/15 10:32:46;;;;;;;21.30;12.30;;;;;;;4.61;61.06;100945.69;108223;1254;60557;-74
2023/01/15 10:35:33;;;;;;;21.70;12.60;;;;;;;4.60;61.05;100942.67;108215;1254;71948;-74
2023/01/15 10:38:06;;;;;;;17.20;11.50;;;;;;;4.59;60.99;100943.34;108255;1253;72787;-74
2023/01/15 10:40:45;;;;;;;20.70;12.00;;;;;;;4.58;60.92;100943.46;108191;1255;72807;-74
2023/01/15 10:43:50;;;;;;;19.60;12.20;;;;;;;4.53;60.96;100937.08;108230;1253;61111;-74
2023/01/15 10:46:18;;;;;;;19.80;11.40;;;;;;;4.53;60.88;100941.35;108191;1254;60737;-74
2023/01/15 10:48:55;;;;;;;19.90;12.20;;;;;;;4.47;60.95;100942.60;108211;1254;72281;-74
2023/01/15 10:51:23;;;;;;;19.60;12.00;;;;;;;4.44;60.99;100941.79;108258;1254;72048;-74
2023/01/15 10:54:11;;;;;;;22.80;13.50;;;;;;;4.46;61.05;100936.41;108136;1254;72637;-74
2023/01/15 10:56:51;;;;;;;21.40;12.80;;;;;;;4.51;61.14;100935.79;108158;1254;60283;-74
2023/01/15 10:59:30;;;;;;;19.30;11.70;;;;;;;4.53;61.04;100936.11;108210;1254;59989;-74
2023/01/15 11:01:57;;;;;;;21.30;12.70;;;;;;;4.49;60.88;100937.83;108209;1254;73841;-76
2023/01/15 11:04:27;;;;;;;23.90;14.00;;;;;;;4.40;60.87;100931.54;108158;1259;70997;-74
2023/01/15 11:06:54;;;;;;;25.50;14.20;;;;;;;4.37;60.91;100929.52;108125;1254;74797;-77
2023/01/15 11:09:23;;;;;;;23.40;13.90;;;;;;;4.33;60.92;100925.36;108085;1254;60767;-75
2023/01/15 11:20:30;;;;;;;23.40;14.40;;;;;;;4.23;61.26;100904.31;108074;1254;72741;-78
2023/01/15 11:23:15;;;;;;;23.30;13.70;;;;;;;4.22;61.42;100901.51;108214;1254;62185;-74
2023/01/15 11:25:52;;;;;;;25.00;14.20;;;;;;;4.20;61.34;100901.66;108139;1254;62254;-74
2023/01/15 11:28:34;;;;;;;25.70;14.30;;;;;;;4.19;61.42;100902.48;108248;1254;74603;-74
2023/01/15 11:31:01;;;;;;;28.90;15.30;;;;;;;4.21;61.49;100897.97;108183;1254;75678;-73
2023/01/15 11:33:30;;;;;;;26.80;15.70;;;;;;;4.24;61.66;100891.41;108477;1253;72239;-75
2023/01/15 11:36:00;;;;;;;28.30;14.70;;;;;;;4.27;61.50;100881.21;108303;1254;61492;-75
2023/01/15 11:38:29;;;;;;;24.80;14.40;;;;;;;4.33;61.77;100878.46;108287;1254;60477;-75
2023/01/15 11:40:59;;;;;;;27.50;15.30;;;;;;;4.35;61.64;100874.59;108065;1254;73880;-75
2023/01/15 11:52:15;;;;;;;28.80;16.70;;;;;;;4.35;61.26;100868.28;108028;1254;61302;-75
2023/01/15 12:06:36;;;;;;;25.20;15.80;;;;;;;4.47;61.31;100865.88;105622;1283;616601;-74
2023/01/15 12:09:16;;;;;;;23.10;14.90;;;;;;;4.71;60.82;100869.79;107308;1271;109110;-75
2023/01/15 12:11:55;;;;;;;28.00;16.30;;;;;;;4.66;60.90;100873.17;107417;1266;59701;-76
2023/01/15 12:14:52;;;;;;;24.90;15.40;;;;;;;4.65;60.86;100874.73;107428;1266;70600;-74
2023/01/15 12:18:02;;;;;;;25.60;14.90;;;;;;;4.61;60.83;100879.43;107441;1266;72993;-75
2023/01/15 12:21:03;;;;;;;31.20;16.90;;;;;;;4.48;60.93;100885.25;107424;1265;71648;-74
2023/01/15 12:23:33;;;;;;;27.90;15.70;;;;;;;4.34;60.99;100880.94;107429;1264;60597;-75
2023/01/15 12:26:26;;;;;;;29.10;15.60;;;;;;;4.28;61.28;100884.94;107576;1262;60449;-76
2023/01/15 12:29:05;;;;;;;26.70;15.00;;;;;;;4.23;61.44;100885.60;107597;1262;70935;-75
2023/01/15 12:31:46;;;;;;;24.80;14.20;;;;;;;4.15;61.59;100884.92;107586;1262;72238;-75
2023/01/15 12:34:18;;;;;;;25.80;15.40;;;;;;;4.11;61.84;100890.71;107523;1262;71837;-75
2023/01/15 12:36:51;;;;;;;26.40;15.40;;;;;;;4.08;62.09;100892.17;107567;1263;59650;-75
2023/01/15 12:39:28;;;;;;;29.00;15.90;;;;;;;4.06;62.11;100893.65;107533;1262;59711;-75
2023/01/15 12:45:03;;;;;;;23.60;14.20;;;;;;;4.02;62.37;100897.06;107501;1262;72628;-74
2023/01/15 12:48:10;;;;;;;26.60;15.80;;;;;;;4.00;62.48;100891.83;107588;1261;72888;-75
2023/01/15 12:50:36;;;;;;;25.80;15.90;;;;;;;4.01;62.54;100891.86;107389;1262;61388;-75
2023/01/15 12:53:10;;;;;;;25.60;15.20;;;;;;;4.04;62.75;100890.39;107599;1262;59730;-75
2023/01/15 12:55:53;;;;;;;28.90;15.70;;;;;;;4.06;62.72;100887.23;107538;1262;73358;-75